Terminal Aerodrome Forecast
Issued by NWS

Current Version | Previous Version | Text Only | Print | Product List | Glossary On
Versions: 1 2 3 4 5 6 7 8 9 10 11 12 13 14 15 16 17 18 19 20 21 22 23 24 25 26 27 28 29 30 31 32
000
FTUS41 KCTP 241548 AAC
TAFLNS
TAF AMD
KLNS 241548Z 2416/2512 31012G19KT P6SM SCT050
     FM242300 29007KT P6SM SCT250
     FM250400 27004KT P6SM SCT070 BKN220=

USA.gov is the U.S. government's official web portal to all federal, state and local government web resources and services.